This is the latest recevied weather packets stored in our database for station/object DO2DV-13. If no packets are shown the sender has not sent any weather packets the latest 10 day(s).
| Time | Temp. | Humidity | Pressure | Rain* | Wind** | Luminosity | Snow |
|---|---|---|---|---|---|---|---|
| 1777515620 | 8.33° C | 42% | 1025.8 hPa | 0 mm | - | 0 W/m² | - |
| 1777513829 | 8.89° C | 41% | 1025.7 hPa | 0 mm | - | 0 W/m² | - |
| 1777503621 | 11.67° C | 40% | 1025.1 hPa | 0 mm | - | 0 W/m² | - |
| 1777503045 | 11.67° C | 39% | 1025 hPa | 0 mm | - | 0 W/m² | - |
| 1777499444 | 12.78° C | 38% | 1024.3 hPa | 0 mm | - | 0 W/m² | - |
| 1777498248 | 13.33° C | 37% | 1024.2 hPa | 0 mm | - | 0 W/m² | - |
| 1777495221 | 14.44° C | 36% | 1023.7 hPa | 0 mm | - | 0 W/m² | - |
| 1777494069 | 14.44° C | 35% | 1023.5 hPa | 0 mm | - | 0 W/m² | - |
| 1777492277 | 15° C | 35% | 1023.2 hPa | 0 mm | - | 0 W/m² | - |
| 1777491081 | 15° C | 33% | 1023 hPa | 0 mm | - | 0 W/m² | - |
| 1777490421 | 15.56° C | 33% | 1022.9 hPa | 0 mm | - | 0 W/m² | - |
| 1777477861 | 20° C | 29% | 1021.7 hPa | 0 mm | - | 256 W/m² | - |
| 1777471270 | 19.44° C | 33% | 1021.8 hPa | 0 mm | - | 451 W/m² | - |
| 1777470054 | 19.44° C | 34% | 1021.9 hPa | 0 mm | - | 588 W/m² | - |
| 1777468261 | 19.44° C | 37% | 1021.8 hPa | 0 mm | - | 502 W/m² | - |
| 1777459236 | 17.78° C | 38% | 1022.2 hPa | 0 mm | - | 654 W/m² | - |
| 1777458662 | 17.78° C | 39% | 1022.1 hPa | 0 mm | - | 678 W/m² | - |
| 1777457466 | 16.67° C | 40% | 1022.2 hPa | 0 mm | - | 657 W/m² | - |
| 1777456229 | 16.67° C | 41% | 1021.9 hPa | 0 mm | - | 698 W/m² | - |
| 1777451430 | 13.89° C | 42% | 1022.1 hPa | 0 mm | - | 562 W/m² | - |
| 1777450278 | 13.89° C | 42% | 1022.1 hPa | 0 mm | - | 529 W/m² | - |
| 1777449655 | 13.33° C | 42% | 1022 hPa | 0 mm | - | 491 W/m² | - |
| 1777447845 | 13.33° C | 43% | 1022 hPa | 0 mm | - | 337 W/m² | - |
| 1777447270 | 12.78° C | 43% | 1021.9 hPa | 0 mm | - | 324 W/m² | - |
| 1777431062 | 11.11° C | 52% | 1020.2 hPa | 0 mm | - | 0 W/m² | - |
* Rain latest hour (hover to see other rain measurements)
** Current wind speed in m/s (hover to see current wind gust speed)